createdAt,value
2023-05-24T00:00:43.247Z,1.67
2023-05-24T00:03:10.272Z,1.13
2023-05-24T00:05:41.102Z,1.20
2023-05-24T00:08:07.761Z,0.95
2023-05-24T00:10:34.393Z,1.92
2023-05-24T00:13:01.136Z,1.30
2023-05-24T00:15:27.759Z,1.52
2023-05-24T00:17:55.984Z,1.40
2023-05-24T00:20:22.767Z,1.20
2023-05-24T00:22:49.433Z,0.98
2023-05-24T00:25:16.089Z,1.15
2023-05-24T00:27:42.745Z,0.80
2023-05-24T00:30:09.605Z,1.05
2023-05-24T00:32:36.278Z,1.17
2023-05-24T00:35:05.542Z,0.93
2023-05-24T00:37:32.241Z,1.00
2023-05-24T00:39:58.895Z,1.73
2023-05-24T00:42:25.587Z,1.75
2023-05-24T00:44:52.336Z,1.20
2023-05-24T00:47:19.158Z,1.17
2023-05-24T00:49:46.385Z,1.00
2023-05-24T00:52:14.552Z,0.80
2023-05-24T00:54:41.300Z,0.70
2023-05-24T00:57:08.114Z,0.90
2023-05-24T00:59:35.209Z,1.10
2023-05-24T01:02:01.950Z,1.27
2023-05-24T01:04:28.836Z,1.20
2023-05-24T01:07:17.048Z,1.40
2023-05-24T01:09:55.193Z,1.10
2023-05-24T01:12:29.325Z,1.13
2023-05-24T01:15:08.755Z,1.17
2023-05-24T01:17:46.950Z,0.88
2023-05-24T01:20:17.553Z,1.27
2023-05-24T01:23:06.435Z,1.77
2023-05-24T01:25:47.488Z,1.30
2023-05-24T01:28:17.728Z,1.30
2023-05-24T01:30:45.393Z,1.00
2023-05-24T01:33:12.177Z,0.90
2023-05-24T01:35:42.600Z,1.02
2023-05-24T01:38:12.702Z,0.90
2023-05-24T01:40:41.294Z,1.00
2023-05-24T01:43:25.635Z,1.55
2023-05-24T01:46:03.109Z,1.27
2023-05-24T01:48:38.285Z,1.23
2023-05-24T01:51:08.161Z,0.77
2023-05-24T01:53:39.485Z,0.93
2023-05-24T01:56:06.939Z,1.20
2023-05-24T01:58:36.456Z,0.93
2023-05-24T02:01:03.332Z,1.33
2023-05-24T02:03:30.108Z,1.00
2023-05-24T02:05:56.771Z,0.85
2023-05-24T02:08:23.546Z,0.88
2023-05-24T02:10:50.522Z,0.82
2023-05-24T02:13:18.221Z,0.98
2023-05-24T02:15:47.741Z,0.80
2023-05-24T02:18:14.675Z,0.90
2023-05-24T02:20:41.783Z,0.98
2023-05-24T02:23:08.777Z,0.63
2023-05-24T02:25:35.648Z,1.65
2023-05-24T02:28:02.459Z,1.30
2023-05-24T02:30:29.097Z,1.58
2023-05-24T02:32:57.571Z,1.10
2023-05-24T02:35:24.353Z,0.98
2023-05-24T02:37:51.263Z,0.90
2023-05-24T02:40:18.032Z,1.20
2023-05-24T02:42:44.763Z,1.00
2023-05-24T02:45:11.606Z,0.88
2023-05-24T02:47:38.262Z,1.33
2023-05-24T02:50:07.590Z,0.82
2023-05-24T02:52:34.209Z,0.90
2023-05-24T02:55:00.854Z,1.17
2023-05-24T02:57:28.821Z,2.28
2023-05-24T02:59:56.111Z,1.10
2023-05-24T03:02:23.037Z,1.40
2023-05-24T03:04:49.684Z,1.00
2023-05-24T03:07:17.755Z,1.50
2023-05-24T03:09:44.387Z,1.75
2023-05-24T03:12:11.534Z,1.40
2023-05-24T03:14:38.287Z,1.30
2023-05-24T03:17:05.127Z,1.00
2023-05-24T03:19:31.708Z,1.40
2023-05-24T03:21:58.361Z,1.17
2023-05-24T03:24:26.986Z,1.60
2023-05-24T03:26:53.869Z,1.55
2023-05-24T03:29:20.764Z,1.40
2023-05-24T03:31:47.512Z,1.20
2023-05-24T03:34:14.335Z,1.20
2023-05-24T03:36:40.921Z,1.30
2023-05-24T03:39:07.884Z,1.58
2023-05-24T03:41:35.894Z,1.02
2023-05-24T03:44:02.629Z,1.02
2023-05-24T03:46:29.306Z,0.98
2023-05-24T03:48:56.058Z,1.33
2023-05-24T03:51:29.503Z,1.30
2023-05-24T03:53:57.147Z,1.30
2023-05-24T03:56:24.105Z,1.65
2023-05-24T03:58:52.345Z,1.27
2023-05-24T04:01:33.243Z,0.98
2023-05-24T04:04:01.777Z,1.65
2023-05-24T04:06:29.857Z,1.30
2023-05-24T04:08:56.952Z,1.25
2023-05-24T04:11:24.103Z,1.02
2023-05-24T04:13:52.387Z,1.73
2023-05-24T04:16:19.263Z,1.77
2023-05-24T04:18:46.730Z,1.33
2023-05-24T04:21:13.511Z,1.70
2023-05-24T04:23:40.252Z,1.52
2023-05-24T04:26:07.533Z,1.40
2023-05-24T04:28:34.167Z,1.75
2023-05-24T04:31:03.342Z,1.88
2023-05-24T04:33:29.983Z,2.08
2023-05-24T04:35:56.772Z,2.35
2023-05-24T04:38:24.990Z,2.13
2023-05-24T04:40:51.684Z,2.67
2023-05-24T04:43:18.516Z,1.98
2023-05-24T04:45:45.363Z,2.33
2023-05-24T04:48:13.447Z,2.30
2023-05-24T04:50:40.353Z,2.20
2023-05-24T04:53:07.224Z,2.60
2023-05-24T04:55:34.017Z,1.67
2023-05-24T04:58:00.828Z,1.90
2023-05-24T05:00:27.456Z,2.00
2023-05-24T05:02:54.441Z,1.83
2023-05-24T05:05:22.861Z,3.28
2023-05-24T05:07:49.546Z,1.73
2023-05-24T05:10:16.631Z,1.80
2023-05-24T05:12:43.440Z,2.00
2023-05-24T05:15:10.689Z,1.85
2023-05-24T05:17:37.358Z,2.38
2023-05-24T05:20:04.746Z,2.22
2023-05-24T05:22:32.792Z,3.00
2023-05-24T05:24:59.701Z,2.20
2023-05-24T05:27:26.358Z,2.70
2023-05-24T05:29:53.046Z,2.60
2023-05-24T05:32:19.842Z,2.50
2023-05-24T05:34:46.599Z,2.38
2023-05-24T05:37:13.536Z,2.80
2023-05-24T05:39:41.525Z,2.42
2023-05-24T05:42:08.306Z,3.47
2023-05-24T05:44:34.956Z,2.95
2023-05-24T05:47:01.744Z,2.72
2023-05-24T05:49:28.473Z,2.83
2023-05-24T05:51:55.516Z,3.10
2023-05-24T05:54:22.402Z,3.10
2023-05-24T05:56:51.113Z,2.83
2023-05-24T05:59:17.894Z,2.88
2023-05-24T06:01:49.150Z,2.22
2023-05-24T06:04:16.480Z,3.08
2023-05-24T06:06:45.424Z,3.03
2023-05-24T06:09:12.120Z,3.13
2023-05-24T06:11:39.837Z,4.57
2023-05-24T06:14:07.916Z,2.80
2023-05-24T06:16:34.835Z,3.38
2023-05-24T06:19:05.983Z,2.50
2023-05-24T06:21:33.959Z,3.10
2023-05-24T06:24:02.753Z,2.50
2023-05-24T06:26:29.807Z,2.88
2023-05-24T06:28:56.659Z,2.38
2023-05-24T06:31:24.700Z,3.30
2023-05-24T06:34:02.700Z,3.33
2023-05-24T06:36:33.999Z,4.32
2023-05-24T06:39:01.419Z,2.85
2023-05-24T06:41:28.489Z,3.00
2023-05-24T06:43:55.292Z,2.45
2023-05-24T06:46:22.252Z,3.65
2023-05-24T06:48:50.655Z,4.80
2023-05-24T06:51:17.476Z,2.80
2023-05-24T06:53:44.599Z,2.83
2023-05-24T06:56:11.311Z,2.72
2023-05-24T06:58:38.345Z,2.58
2023-05-24T07:01:05.519Z,3.53
2023-05-24T07:03:32.485Z,2.85
2023-05-24T07:06:00.689Z,2.75
2023-05-24T07:08:27.577Z,2.60
2023-05-24T07:10:55.038Z,3.33
2023-05-24T07:13:22.017Z,3.72
2023-05-24T07:15:49.264Z,2.72
2023-05-24T07:18:16.505Z,3.00
2023-05-24T07:20:43.510Z,2.60
2023-05-24T07:23:12.247Z,1.98
2023-05-24T07:25:38.938Z,2.05
2023-05-24T07:28:05.899Z,2.85
2023-05-24T07:30:33.111Z,2.67
2023-05-24T07:33:00.225Z,3.10
2023-05-24T07:35:28.699Z,2.00
2023-05-24T07:37:55.423Z,3.58
2023-05-24T07:40:24.064Z,2.80
2023-05-24T07:42:50.973Z,2.42
2023-05-24T07:45:18.109Z,2.42
2023-05-24T07:47:44.889Z,2.47
2023-05-24T07:50:12.117Z,2.75
2023-05-24T07:52:38.889Z,2.50
2023-05-24T07:55:06.450Z,2.10
2023-05-24T07:57:34.450Z,2.17
2023-05-24T08:00:07.219Z,1.80
2023-05-24T08:02:35.018Z,1.23
2023-05-24T08:05:01.923Z,2.03
2023-05-24T08:07:28.895Z,2.17
2023-05-24T08:09:55.708Z,1.63
2023-05-24T08:12:22.734Z,1.92
2023-05-24T08:14:50.789Z,2.10
2023-05-24T08:17:17.409Z,2.50
2023-05-24T08:19:44.080Z,1.52
2023-05-24T08:22:10.778Z,2.80
2023-05-24T08:24:37.423Z,2.00
2023-05-24T08:27:04.959Z,1.98
2023-05-24T08:29:32.218Z,2.20
2023-05-24T08:32:01.146Z,2.33
2023-05-24T08:34:28.546Z,1.95
2023-05-24T08:36:55.217Z,2.72
2023-05-24T08:39:21.926Z,1.88
2023-05-24T08:42:01.048Z,1.52
2023-05-24T08:44:41.858Z,1.30
2023-05-24T08:47:12.984Z,1.65
2023-05-24T08:49:40.960Z,1.55
2023-05-24T08:52:07.734Z,1.90
2023-05-24T08:54:36.134Z,1.40
2023-05-24T08:57:03.263Z,1.60
2023-05-24T08:59:30.142Z,1.00
2023-05-24T09:01:58.117Z,1.30
2023-05-24T09:04:27.589Z,1.83
2023-05-24T09:06:55.446Z,1.65
2023-05-24T09:09:27.237Z,2.22
2023-05-24T09:11:56.948Z,1.70
2023-05-24T09:14:23.611Z,0.93
2023-05-24T09:16:50.731Z,1.25
2023-05-24T09:19:19.210Z,1.45
2023-05-24T09:21:49.490Z,1.30
2023-05-24T09:24:16.579Z,0.80
2023-05-24T09:26:43.223Z,0.93
2023-05-24T09:29:10.067Z,0.73
2023-05-24T09:31:39.424Z,1.00
2023-05-24T09:34:10.029Z,1.40
2023-05-24T09:36:43.103Z,1.83
2023-05-24T09:39:11.631Z,2.03
2023-05-24T09:41:38.841Z,1.90
2023-05-24T09:44:06.074Z,1.80
2023-05-24T09:46:36.307Z,1.92
2023-05-24T09:49:06.894Z,1.67
2023-05-24T09:51:38.209Z,2.28
2023-05-24T09:54:06.433Z,1.67
2023-05-24T09:56:35.069Z,1.17
2023-05-24T09:59:08.155Z,1.35
2023-05-24T10:01:36.207Z,1.52
2023-05-24T10:04:09.299Z,1.42
2023-05-24T10:06:38.556Z,1.90
2023-05-24T10:09:06.675Z,1.60
2023-05-24T10:11:36.968Z,1.02
2023-05-24T10:14:07.066Z,1.20
2023-05-24T10:16:33.780Z,1.10
2023-05-24T10:19:00.561Z,1.23
2023-05-24T10:21:31.713Z,1.98
2023-05-24T10:24:02.259Z,1.45
2023-05-24T10:26:32.850Z,1.20
2023-05-24T10:29:06.761Z,1.30
2023-05-24T10:31:37.968Z,1.60
2023-05-24T10:34:08.733Z,1.00
2023-05-24T10:36:36.937Z,1.50
2023-05-24T10:39:04.260Z,1.98
2023-05-24T10:41:39.024Z,1.40
2023-05-24T10:44:12.189Z,1.17
2023-05-24T10:47:04.079Z,1.80
2023-05-24T10:49:31.491Z,1.88
2023-05-24T10:52:02.612Z,1.17
2023-05-24T10:54:29.358Z,1.38
2023-05-24T10:57:04.529Z,1.00
2023-05-24T10:59:37.457Z,1.67
2023-05-24T11:02:09.624Z,0.93
2023-05-24T11:04:43.069Z,1.15
2023-05-24T11:07:10.740Z,1.30
2023-05-24T11:09:45.926Z,1.63
2023-05-24T11:12:16.355Z,1.40
2023-05-24T11:14:49.419Z,0.90
2023-05-24T11:17:16.966Z,1.60
2023-05-24T11:19:48.041Z,2.60
2023-05-24T11:22:15.183Z,1.95
2023-05-24T11:24:42.766Z,1.67
2023-05-24T11:27:11.813Z,1.95
2023-05-24T11:29:42.640Z,1.90
2023-05-24T11:32:15.645Z,1.80
2023-05-24T11:34:45.172Z,2.15
2023-05-24T11:37:13.901Z,1.40
2023-05-24T11:39:42.114Z,1.27
2023-05-24T11:42:09.707Z,1.40
2023-05-24T11:44:39.502Z,1.30
2023-05-24T11:47:08.338Z,2.05
2023-05-24T11:49:36.432Z,1.77
2023-05-24T11:52:03.750Z,2.30
2023-05-24T11:54:33.321Z,1.20
2023-05-24T11:57:00.551Z,1.95
2023-05-24T11:59:29.204Z,1.38
2023-05-24T12:02:00.496Z,1.50
2023-05-24T12:04:28.019Z,1.50
2023-05-24T12:06:57.265Z,1.02
2023-05-24T12:09:24.754Z,2.15
2023-05-24T12:11:52.824Z,1.17
2023-05-24T12:14:23.597Z,1.40
2023-05-24T12:16:50.544Z,1.80
2023-05-24T12:19:32.398Z,1.60
2023-05-24T12:22:08.300Z,1.73
2023-05-24T12:24:35.463Z,1.67
2023-05-24T12:27:07.880Z,1.33
2023-05-24T12:29:36.812Z,1.88
2023-05-24T12:32:04.504Z,1.08
2023-05-24T12:34:32.350Z,1.52
2023-05-24T12:37:02.530Z,1.92
2023-05-24T12:39:36.419Z,1.88
2023-05-24T12:42:04.347Z,2.05
2023-05-24T12:44:32.199Z,2.38
2023-05-24T12:46:59.148Z,2.22
2023-05-24T12:49:26.935Z,1.70
2023-05-24T12:51:54.853Z,1.02
2023-05-24T12:54:24.790Z,1.67
2023-05-24T12:56:55.579Z,1.30
2023-05-24T12:59:23.185Z,1.40
2023-05-24T13:01:53.257Z,1.52
2023-05-24T13:04:22.999Z,1.50
2023-05-24T13:06:49.769Z,1.60
2023-05-24T13:09:21.632Z,2.25
2023-05-24T13:11:49.967Z,1.77
2023-05-24T13:14:18.191Z,2.42
2023-05-24T13:16:44.982Z,2.10
2023-05-24T13:19:12.425Z,2.30
2023-05-24T13:21:39.341Z,1.50
2023-05-24T13:24:06.914Z,1.65
2023-05-24T13:26:37.535Z,1.55
2023-05-24T13:31:38.285Z,1.20
2023-05-24T13:34:05.292Z,1.83
2023-05-24T13:36:31.989Z,1.92
2023-05-24T13:39:14.197Z,1.40
2023-05-24T13:41:50.348Z,1.73
2023-05-24T13:44:18.459Z,2.00
2023-05-24T13:46:45.594Z,1.70
2023-05-24T13:49:12.358Z,1.48
2023-05-24T13:51:39.404Z,2.30
2023-05-24T13:54:07.418Z,1.25
2023-05-24T13:56:34.986Z,1.38
2023-05-24T13:59:04.622Z,2.10
2023-05-24T14:01:33.740Z,1.15
2023-05-24T14:04:01.504Z,1.20
2023-05-24T14:06:28.279Z,1.42
2023-05-24T14:08:55.204Z,1.65
2023-05-24T14:11:22.670Z,1.80
2023-05-24T14:16:19.365Z,2.20
2023-05-24T14:18:49.260Z,1.58
2023-05-24T14:21:18.617Z,1.67
2023-05-24T14:23:45.471Z,1.10
2023-05-24T14:26:12.431Z,1.40
2023-05-24T14:28:39.188Z,1.60
2023-05-24T14:31:05.964Z,1.60
2023-05-24T14:33:32.612Z,1.38
2023-05-24T14:36:00.848Z,1.63
2023-05-24T14:38:27.986Z,1.13
2023-05-24T14:40:56.911Z,1.23
2023-05-24T14:43:23.785Z,0.93
2023-05-24T14:45:50.520Z,1.10
2023-05-24T14:48:17.215Z,1.38
2023-05-24T14:50:44.055Z,1.42
2023-05-24T14:53:12.616Z,1.67
2023-05-24T14:55:41.659Z,1.30
2023-05-24T14:58:12.111Z,2.10
2023-05-24T15:00:39.880Z,2.05
2023-05-24T15:03:08.354Z,1.73
2023-05-24T15:05:36.302Z,1.42
2023-05-24T15:08:03.288Z,2.13
2023-05-24T15:10:31.769Z,1.67
2023-05-24T15:12:58.527Z,1.80
2023-05-24T15:15:25.191Z,1.45
2023-05-24T15:17:52.093Z,1.40
2023-05-24T15:20:19.708Z,1.45
2023-05-24T15:22:47.081Z,1.50
2023-05-24T15:25:13.838Z,1.33
2023-05-24T15:27:41.849Z,1.85
2023-05-24T15:30:09.132Z,1.27
2023-05-24T15:32:35.936Z,1.00
2023-05-24T15:35:02.774Z,1.17
2023-05-24T15:37:29.570Z,1.25
2023-05-24T15:39:56.365Z,1.17
2023-05-24T15:42:24.775Z,1.35
2023-05-24T15:44:52.946Z,1.80
2023-05-24T15:47:22.181Z,1.80
2023-05-24T15:49:49.865Z,1.88
2023-05-24T15:52:16.738Z,1.45
2023-05-24T15:54:43.410Z,1.75
2023-05-24T15:57:10.124Z,2.03
2023-05-24T15:59:38.504Z,1.23
2023-05-24T16:02:07.696Z,1.70
2023-05-24T16:04:34.444Z,1.50
2023-05-24T16:07:01.160Z,1.30
2023-05-24T16:09:27.764Z,1.70
2023-05-24T16:11:54.853Z,2.05
2023-05-24T16:14:21.558Z,1.30
2023-05-24T16:16:48.280Z,1.83
2023-05-24T16:19:16.544Z,1.15
2023-05-24T16:21:43.292Z,2.50
2023-05-24T16:24:10.147Z,3.50
2023-05-24T16:26:37.112Z,2.47
2023-05-24T16:29:04.037Z,2.10
2023-05-24T16:31:31.836Z,3.40
2023-05-24T16:34:01.582Z,2.67
2023-05-24T16:36:29.684Z,2.33
2023-05-24T16:38:57.381Z,1.95
2023-05-24T16:41:24.328Z,1.65
2023-05-24T16:43:50.972Z,3.10
2023-05-24T16:46:18.143Z,1.80
2023-05-24T16:48:45.701Z,3.15
2023-05-24T16:51:12.327Z,2.40
2023-05-24T16:53:40.493Z,2.17
2023-05-24T16:56:07.158Z,2.78
2023-05-24T16:58:33.773Z,2.20
2023-05-24T17:01:00.827Z,1.75
2023-05-24T17:03:28.882Z,1.90
2023-05-24T17:05:56.897Z,1.98
2023-05-24T17:08:25.773Z,1.20
2023-05-24T17:10:57.068Z,1.80
2023-05-24T17:13:23.964Z,1.17
2023-05-24T17:15:54.871Z,1.30
2023-05-24T17:18:29.355Z,1.42
2023-05-24T17:20:56.321Z,1.35
2023-05-24T17:23:25.044Z,1.23
2023-05-24T17:25:53.503Z,1.65
2023-05-24T17:28:20.331Z,2.60
2023-05-24T17:30:47.550Z,1.90
2023-05-24T17:33:14.508Z,2.20
2023-05-24T17:35:43.045Z,1.60
2023-05-24T17:38:11.931Z,1.35
2023-05-24T17:40:39.819Z,2.25
2023-05-24T17:43:07.813Z,1.75
2023-05-24T17:45:34.507Z,1.95
2023-05-24T17:48:01.394Z,1.58
2023-05-24T17:50:28.045Z,2.08
2023-05-24T17:52:54.919Z,1.92
2023-05-24T17:55:21.632Z,2.33
2023-05-24T17:57:48.285Z,1.70
2023-05-24T18:00:17.570Z,3.13
2023-05-24T18:02:44.714Z,2.53
2023-05-24T18:05:11.681Z,1.70
2023-05-24T18:07:38.501Z,1.63
2023-05-24T18:10:06.729Z,1.50
2023-05-24T18:12:34.298Z,1.58
2023-05-24T18:15:00.963Z,1.00
2023-05-24T18:17:29.045Z,0.93
2023-05-24T18:19:55.817Z,1.13
2023-05-24T18:22:22.487Z,1.23
2023-05-24T18:24:49.236Z,1.20
2023-05-24T18:27:15.978Z,0.88
2023-05-24T18:29:42.837Z,1.08
2023-05-24T18:32:10.164Z,1.45
2023-05-24T18:34:38.149Z,1.02
2023-05-24T18:37:05.368Z,1.10
2023-05-24T18:39:32.033Z,1.13
2023-05-24T18:41:58.790Z,1.70
2023-05-24T18:44:25.638Z,1.00
2023-05-24T18:46:55.621Z,1.48
2023-05-24T18:49:22.492Z,1.60
2023-05-24T18:51:53.068Z,1.02
2023-05-24T18:54:20.032Z,1.40
2023-05-24T18:56:47.016Z,1.27
2023-05-24T18:59:14.057Z,1.15
2023-05-24T19:01:41.600Z,1.10
2023-05-24T19:04:08.291Z,0.90
2023-05-24T19:06:35.086Z,1.55
2023-05-24T19:09:04.018Z,1.10
2023-05-24T19:11:30.744Z,0.95
2023-05-24T19:13:57.403Z,1.35
2023-05-24T19:16:24.086Z,1.20
2023-05-24T19:18:50.787Z,0.95
2023-05-24T19:21:17.657Z,1.38
2023-05-24T19:23:44.354Z,0.80
2023-05-24T19:26:12.605Z,1.40
2023-05-24T19:28:41.641Z,0.93
2023-05-24T19:31:08.458Z,1.92
2023-05-24T19:33:38.706Z,1.30
2023-05-24T19:36:10.663Z,1.30
2023-05-24T19:38:37.603Z,1.63
2023-05-24T19:41:04.452Z,0.95
2023-05-24T19:43:32.472Z,0.80
2023-05-24T19:45:59.241Z,1.33
2023-05-24T19:48:26.083Z,1.10
2023-05-24T19:50:52.820Z,1.73
2023-05-24T19:53:19.545Z,0.93
2023-05-24T19:55:46.362Z,1.83
2023-05-24T19:58:13.063Z,1.02
2023-05-24T20:00:41.209Z,1.05
2023-05-24T20:03:07.970Z,1.10
2023-05-24T20:05:34.665Z,2.00
2023-05-24T20:08:01.405Z,1.42
2023-05-24T20:10:30.069Z,1.48
2023-05-24T20:12:56.721Z,1.60
2023-05-24T20:15:27.481Z,1.60
2023-05-24T20:17:55.726Z,1.73
2023-05-24T20:20:22.987Z,1.52
2023-05-24T20:22:49.751Z,1.63
2023-05-24T20:25:16.795Z,1.60
2023-05-24T20:27:43.494Z,1.27
2023-05-24T20:30:12.226Z,1.33
2023-05-24T20:32:39.107Z,1.60
2023-05-24T20:35:09.170Z,1.38
2023-05-24T20:37:36.414Z,1.58
2023-05-24T20:40:03.209Z,1.33
2023-05-24T20:42:31.109Z,1.30
2023-05-24T20:44:57.777Z,1.60
2023-05-24T20:47:24.580Z,1.45
2023-05-24T20:49:51.383Z,2.13
2023-05-24T20:52:19.412Z,1.42
2023-05-24T20:54:46.068Z,1.10
2023-05-24T20:57:12.713Z,1.30
2023-05-24T20:59:39.314Z,1.60
2023-05-24T21:02:05.988Z,0.93
2023-05-24T21:04:32.633Z,1.67
2023-05-24T21:06:59.260Z,1.38
2023-05-24T21:09:27.346Z,1.05
2023-05-24T21:11:53.987Z,1.15
2023-05-24T21:14:20.919Z,1.50
2023-05-24T21:16:47.627Z,1.25
2023-05-24T21:19:14.295Z,1.50
2023-05-24T21:21:41.087Z,1.17
2023-05-24T21:24:07.927Z,1.77
2023-05-24T21:26:35.976Z,1.20
2023-05-24T21:29:02.590Z,1.50
2023-05-24T21:31:30.179Z,1.25
2023-05-24T21:33:56.954Z,1.75
2023-05-24T21:36:23.854Z,1.60
2023-05-24T21:38:51.114Z,1.83
2023-05-24T21:41:17.876Z,1.52
2023-05-24T21:43:46.013Z,1.48
2023-05-24T21:46:13.119Z,1.35
2023-05-24T21:48:39.891Z,1.30
2023-05-24T21:51:06.654Z,1.40
2023-05-24T21:53:35.065Z,1.13
2023-05-24T21:56:02.705Z,1.10
2023-05-24T21:58:31.044Z,1.20
2023-05-24T22:00:59.108Z,1.63
2023-05-24T22:03:26.035Z,1.38
2023-05-24T22:05:52.846Z,1.30
2023-05-24T22:08:19.517Z,1.30
2023-05-24T22:10:46.171Z,1.83
2023-05-24T22:13:12.934Z,1.00
2023-05-24T22:15:39.924Z,0.90
2023-05-24T22:18:08.739Z,1.50
2023-05-24T22:20:36.757Z,1.80
2023-05-24T22:23:03.554Z,1.60
2023-05-24T22:25:30.360Z,1.17
2023-05-24T22:27:57.257Z,1.50
2023-05-24T22:30:24.227Z,2.00
2023-05-24T22:32:51.114Z,1.70
2023-05-24T22:35:19.243Z,1.33
2023-05-24T22:37:45.992Z,1.13
2023-05-24T22:40:13.515Z,1.20
2023-05-24T22:42:40.418Z,2.08
2023-05-24T22:45:08.467Z,1.58
2023-05-24T22:47:35.272Z,1.65
2023-05-24T22:50:02.178Z,1.17
2023-05-24T22:52:33.671Z,1.40
2023-05-24T22:55:00.687Z,1.33
2023-05-24T22:57:27.504Z,1.20
2023-05-24T22:59:54.176Z,1.13
2023-05-24T23:02:21.249Z,1.05
2023-05-24T23:04:48.319Z,1.80
2023-05-24T23:07:15.516Z,1.13
2023-05-24T23:09:43.971Z,1.80
2023-05-24T23:12:11.612Z,1.13
2023-05-24T23:14:39.960Z,1.20
2023-05-24T23:17:10.231Z,1.50
2023-05-24T23:19:46.475Z,1.27
2023-05-24T23:22:18.513Z,1.63
2023-05-24T23:24:49.710Z,1.48
2023-05-24T23:27:16.425Z,1.05
2023-05-24T23:29:43.132Z,1.40
2023-05-24T23:32:10.658Z,1.30
2023-05-24T23:34:37.530Z,0.80
2023-05-24T23:37:05.461Z,1.10
2023-05-24T23:39:32.332Z,1.30
2023-05-24T23:42:02.143Z,1.45
2023-05-24T23:44:29.182Z,0.98
2023-05-24T23:46:56.730Z,1.58
2023-05-24T23:49:23.915Z,1.25
2023-05-24T23:51:50.784Z,1.33
2023-05-24T23:54:19.345Z,1.00
2023-05-24T23:56:48.656Z,1.23
2023-05-24T23:59:17.518Z,1.45
